Terminal Aerodrome Forecast
Issued by NWS Amarillo, TX

Home | Current Version | Previous Version | Text Only | Print | Product List | Glossary On
Versions: 1 2 3 4 5 6 7 8 9 10 11 12 13 14 15 16 17
000
FTUS44 KAMA 300900 AAA
TAFAMA
TAF AMD
KAMA 300927Z 3009/3106 03006KT 6SM BR SCT003 BKN010
      TEMPO 3009/3010 3SM BR BKN003
     FM301000 04005KT 3SM BR OVC003
     FM301400 04010KT P6SM SCT010 BKN020
     FM301800 07010KT P6SM BKN050
     FM310300 10010KT P6SM OVC040=

USA.gov is the U.S. government's official web portal to all federal, state and local government web resources and services.